createdAt,value
2019-04-11T00:00:39.621Z,59.11
2019-04-11T00:01:44.698Z,59.30
2019-04-11T00:02:38.631Z,59.02
2019-04-11T00:03:39.594Z,58.92
2019-04-11T00:04:38.627Z,59.59
2019-04-11T00:05:39.097Z,59.40
2019-04-11T00:06:39.303Z,59.40
2019-04-11T00:07:38.643Z,58.92
2019-04-11T00:08:38.643Z,59.40
2019-04-11T00:09:38.792Z,59.37
2019-04-11T00:10:39.592Z,59.21
2019-04-11T00:11:38.746Z,59.11
2019-04-11T00:12:38.863Z,59.40
2019-04-11T00:13:39.101Z,59.02
2019-04-11T00:14:38.661Z,59.40
2019-04-11T00:15:38.654Z,58.92
2019-04-11T00:16:39.496Z,59.40
2019-04-11T00:17:38.687Z,59.37
2019-04-11T00:18:38.832Z,59.49
2019-04-11T00:19:39.791Z,59.40
2019-04-11T00:20:38.682Z,59.84
2019-04-11T00:21:39.377Z,59.56
2019-04-11T00:22:38.680Z,59.66
2019-04-11T00:23:38.708Z,59.66
2019-04-11T00:24:39.776Z,60.22
2019-04-11T00:25:39.705Z,59.84
2019-04-11T00:26:38.729Z,60.41
2019-04-11T00:27:39.264Z,60.79
2019-04-11T00:28:39.535Z,60.89
2019-04-11T00:29:38.739Z,60.03
2019-04-11T00:30:39.907Z,61.27
2019-04-11T00:31:39.069Z,60.79
2019-04-11T00:32:38.740Z,61.08
2019-04-11T00:33:38.718Z,61.17
2019-04-11T00:34:39.340Z,61.46
2019-04-11T00:35:39.772Z,61.36
2019-04-11T00:36:38.813Z,61.08
2019-04-11T00:37:38.756Z,61.08
2019-04-11T00:38:38.740Z,60.98
2019-04-11T00:39:39.619Z,60.89
2019-04-11T00:40:39.543Z,61.08
2019-04-11T00:41:39.732Z,61.36
2019-04-11T00:42:38.851Z,61.27
2019-04-11T00:43:41.975Z,61.08
2019-04-11T00:44:38.998Z,61.17
2019-04-11T00:45:38.761Z,61.46
2019-04-11T00:46:38.815Z,61.27
2019-04-11T00:47:39.774Z,61.17
2019-04-11T00:48:38.780Z,61.46
2019-04-11T00:49:38.824Z,61.17
2019-04-11T00:50:39.167Z,60.89
2019-04-11T00:51:38.805Z,60.89
2019-04-11T00:52:39.169Z,60.89
2019-04-11T00:53:38.795Z,60.89
2019-04-11T00:54:38.786Z,60.79
2019-04-11T00:55:39.839Z,60.89
2019-04-11T00:56:39.859Z,61.74
2019-04-11T00:57:39.067Z,61.74
2019-04-11T00:58:38.791Z,61.83
2019-04-11T00:59:38.792Z,61.93
2019-04-11T01:00:39.732Z,62.59
2019-04-11T01:01:38.824Z,62.21
2019-04-11T01:02:40.706Z,62.78
2019-04-11T01:03:39.114Z,62.78
2019-04-11T01:04:39.117Z,62.69
2019-04-11T01:05:39.433Z,62.78
2019-04-11T01:06:38.838Z,62.78
2019-04-11T01:07:38.844Z,62.40
2019-04-11T01:08:39.857Z,62.40
2019-04-11T01:09:38.827Z,62.50
2019-04-11T01:10:39.390Z,62.40
2019-04-11T01:11:39.018Z,62.69
2019-04-11T01:12:38.838Z,62.59
2019-04-11T01:13:45.640Z,63.17
2019-04-11T01:14:38.881Z,63.23
2019-04-11T01:15:38.878Z,63.51
2019-04-11T01:16:38.955Z,63.92
2019-04-11T01:17:39.244Z,63.89
2019-04-11T01:18:38.854Z,63.60
2019-04-11T01:19:38.908Z,63.73
2019-04-11T01:20:39.770Z,63.17
2019-04-11T01:21:38.883Z,63.70
2019-04-11T01:22:38.866Z,63.32
2019-04-11T01:23:39.471Z,63.60
2019-04-11T01:24:39.875Z,63.51
2019-04-11T01:25:38.973Z,64.01
2019-04-11T01:26:38.874Z,63.79
2019-04-11T01:27:40.011Z,63.51
2019-04-11T01:28:38.944Z,63.54
2019-04-11T01:29:39.774Z,63.32
2019-04-11T01:30:38.918Z,63.54
2019-04-11T01:31:39.892Z,63.89
2019-04-11T01:32:38.900Z,64.46
2019-04-11T01:33:40.060Z,64.11
2019-04-11T01:34:38.889Z,64.30
2019-04-11T01:35:39.501Z,64.49
2019-04-11T01:36:39.424Z,63.89
2019-04-11T01:37:39.838Z,64.17
2019-04-11T01:38:38.907Z,64.27
2019-04-11T01:39:39.122Z,64.40
2019-04-11T01:40:39.942Z,64.36
2019-04-11T01:41:38.935Z,64.17
2019-04-11T01:42:39.672Z,64.08
2019-04-11T01:43:39.864Z,65.12
2019-04-11T01:44:38.956Z,64.84
2019-04-11T01:45:38.935Z,64.55
2019-04-11T01:46:38.951Z,64.08
2019-04-11T01:47:39.361Z,64.20
2019-04-11T01:48:39.635Z,64.17
2019-04-11T01:49:38.975Z,64.11
2019-04-11T01:50:39.006Z,64.36
2019-04-11T01:51:40.017Z,65.22
2019-04-11T01:52:38.946Z,64.93
2019-04-11T01:53:39.496Z,65.22
2019-04-11T01:54:39.595Z,65.03
2019-04-11T01:55:38.954Z,65.12
2019-04-11T01:56:39.167Z,64.93
2019-04-11T01:57:40.182Z,64.55
2019-04-11T01:58:38.963Z,65.12
2019-04-11T01:59:39.582Z,65.41
2019-04-11T02:00:39.909Z,65.22
2019-04-11T02:01:39.071Z,65.88
2019-04-11T02:02:39.007Z,66.45
2019-04-11T02:03:39.308Z,66.54
2019-04-11T02:04:39.009Z,65.97
2019-04-11T02:05:39.034Z,65.97
2019-04-11T02:06:40.232Z,66.16
2019-04-11T02:07:39.013Z,65.88
2019-04-11T02:08:39.647Z,65.78
2019-04-11T02:09:40.073Z,65.41
2019-04-11T02:10:39.164Z,66.16
2019-04-11T02:11:39.467Z,65.97
2019-04-11T02:12:39.438Z,65.59
2019-04-11T02:13:39.695Z,65.97
2019-04-11T02:14:39.655Z,65.69
2019-04-11T02:15:39.019Z,65.78
2019-04-11T02:16:39.046Z,66.26
2019-04-11T02:17:39.136Z,66.45
2019-04-11T02:18:39.388Z,66.35
2019-04-11T02:19:39.023Z,65.97
2019-04-11T02:20:39.087Z,65.59
2019-04-11T02:21:40.046Z,65.59
2019-04-11T02:22:40.331Z,65.50
2019-04-11T02:23:39.386Z,65.97
2019-04-11T02:24:39.668Z,65.50
2019-04-11T02:25:39.035Z,65.78
2019-04-11T02:26:39.067Z,65.78
2019-04-11T02:27:40.181Z,65.97
2019-04-11T02:28:39.073Z,65.78
2019-04-11T02:29:39.049Z,65.97
2019-04-11T02:30:40.998Z,65.78
2019-04-11T02:31:39.097Z,65.69
2019-04-11T02:32:40.439Z,65.97
2019-04-11T02:33:39.098Z,65.88
2019-04-11T02:34:39.752Z,65.31
2019-04-11T02:35:39.927Z,65.12
2019-04-11T02:36:40.545Z,65.50
2019-04-11T02:37:39.938Z,65.12
2019-04-11T02:38:40.788Z,65.22
2019-04-11T02:39:40.802Z,65.78
2019-04-11T02:40:40.890Z,65.22
2019-04-11T02:41:39.855Z,65.31
2019-04-11T02:42:39.163Z,65.41
2019-04-11T02:43:42.122Z,64.74
2019-04-11T02:44:56.053Z,66.07
2019-04-11T02:45:51.758Z,65.78
2019-04-11T02:46:44.927Z,65.97
2019-04-11T02:47:41.083Z,65.59
2019-04-11T02:48:40.666Z,65.88
2019-04-11T02:49:39.352Z,65.78
2019-04-11T02:50:41.030Z,65.41
2019-04-11T02:51:39.244Z,65.59
2019-04-11T02:52:40.246Z,66.03
2019-04-11T02:53:40.919Z,65.41
2019-04-11T02:54:40.813Z,65.69
2019-04-11T02:55:39.158Z,65.88
2019-04-11T02:56:40.774Z,65.59
2019-04-11T02:57:40.604Z,65.97
2019-04-11T02:58:39.992Z,65.78
2019-04-11T02:59:40.851Z,65.69
2019-04-11T03:00:40.277Z,65.12
2019-04-11T03:01:39.919Z,65.78
2019-04-11T03:02:39.931Z,65.69
2019-04-11T03:03:39.938Z,65.59
2019-04-11T03:04:39.365Z,64.93
2019-04-11T03:05:39.502Z,65.03
2019-04-11T03:06:39.636Z,65.88
2019-04-11T03:07:40.138Z,65.75
2019-04-11T03:08:40.777Z,65.75
2019-04-11T03:09:39.390Z,65.37
2019-04-11T03:10:40.748Z,65.94
2019-04-11T03:11:40.743Z,65.56
2019-04-11T03:12:40.495Z,65.66
2019-04-11T03:13:39.572Z,65.94
2019-04-11T03:15:02.260Z,65.94
2019-04-11T03:15:54.463Z,65.97
2019-04-11T03:16:51.918Z,65.78
2019-04-11T03:17:43.253Z,65.56
2019-04-11T03:18:57.384Z,65.78
2019-04-11T03:19:53.648Z,65.37
2019-04-11T03:20:47.021Z,66.13
2019-04-11T03:21:41.719Z,66.41
2019-04-11T03:22:40.619Z,66.51
2019-04-11T03:23:39.846Z,65.75
2019-04-11T03:24:40.495Z,65.75
2019-04-11T03:25:40.565Z,66.41
2019-04-11T05:31:24.794Z,65.16
2019-04-11T05:32:25.643Z,64.87
2019-04-11T05:33:25.242Z,64.14
2019-04-11T05:34:24.042Z,63.57
2019-04-11T05:35:24.914Z,63.48
2019-04-11T05:36:24.797Z,63.10
2019-04-11T05:37:24.116Z,62.53
2019-04-11T05:38:25.124Z,62.34
2019-04-11T05:39:24.067Z,62.18
2019-04-11T05:40:24.090Z,61.80
2019-04-11T05:41:24.672Z,61.23
2019-04-11T05:42:26.498Z,60.85
2019-04-11T05:43:27.967Z,60.88
2019-04-11T05:44:25.102Z,60.38
2019-04-11T05:45:25.961Z,60.10
2019-04-11T05:46:34.457Z,60.10
2019-04-11T05:47:24.145Z,59.43
2019-04-11T05:48:26.840Z,59.24
2019-04-11T05:49:24.202Z,60.00
2019-04-11T05:50:24.363Z,59.91
2019-04-11T05:51:25.247Z,59.74
2019-04-11T05:52:24.181Z,59.65
2019-04-11T05:53:25.011Z,58.61
2019-04-11T05:54:24.154Z,58.32
2019-04-11T05:55:24.116Z,58.06
2019-04-11T05:56:24.123Z,57.21
2019-04-11T05:57:30.673Z,57.30
2019-04-11T05:58:24.222Z,56.63
2019-04-11T05:59:25.560Z,56.45
2019-04-11T06:00:24.416Z,55.97
2019-04-11T06:01:24.466Z,56.00
2019-04-11T06:02:24.973Z,56.00
2019-04-11T06:03:24.174Z,56.10
2019-04-11T06:04:27.251Z,55.15
2019-04-11T06:05:29.160Z,54.55
2019-04-11T06:06:24.680Z,55.11
2019-04-11T06:07:25.150Z,55.50
2019-04-11T06:08:28.546Z,55.88
2019-04-11T06:09:24.214Z,56.16
2019-04-11T06:10:24.266Z,56.61
2019-04-11T06:11:24.313Z,56.70
2019-04-11T06:12:25.418Z,56.99
2019-04-11T06:13:24.683Z,57.18
2019-04-11T06:14:25.010Z,56.54
2019-04-11T06:15:25.009Z,56.04
2019-04-11T06:16:36.138Z,56.04
2019-04-11T06:17:24.253Z,56.99
2019-04-11T06:18:31.282Z,57.72
2019-04-11T06:19:24.925Z,57.94
2019-04-11T06:20:25.237Z,57.94
2019-04-11T06:21:24.422Z,57.94
2019-04-11T06:22:25.515Z,57.28
2019-04-11T06:23:25.412Z,57.18
2019-04-11T06:24:24.307Z,56.99
2019-04-11T06:25:25.838Z,57.37
2019-04-11T06:26:24.828Z,57.56
2019-04-11T06:27:24.323Z,57.94
2019-04-11T06:28:24.403Z,58.03
2019-04-11T06:29:26.418Z,58.00
2019-04-11T06:30:24.347Z,59.14
2019-04-11T06:31:24.805Z,59.43
2019-04-11T06:32:24.520Z,59.43
2019-04-11T06:33:24.761Z,58.76
2019-04-11T06:34:26.489Z,58.89
2019-04-11T06:35:24.344Z,58.39
2019-04-11T06:36:26.578Z,59.14
2019-04-11T06:37:25.566Z,59.14
2019-04-11T06:38:24.715Z,59.05
2019-04-11T06:39:24.373Z,59.33
2019-04-11T06:40:24.823Z,59.52
2019-04-11T06:41:24.441Z,59.71
2019-04-11T06:42:26.763Z,60.10
2019-04-11T06:43:24.437Z,60.38
2019-04-11T06:44:24.399Z,60.10
2019-04-11T06:45:24.414Z,60.44
2019-04-11T06:46:25.069Z,60.95
2019-04-11T06:47:25.058Z,60.92
2019-04-11T06:48:25.153Z,61.11
2019-04-11T06:49:24.691Z,61.77
2019-04-11T06:50:25.080Z,61.68
2019-04-11T06:51:24.417Z,61.58
2019-04-11T06:52:24.480Z,61.58
2019-04-11T06:53:24.441Z,61.96
2019-04-11T06:54:25.229Z,61.68
2019-04-11T06:55:24.575Z,61.96
2019-04-11T06:56:25.346Z,61.96
2019-04-11T06:57:25.543Z,62.72
2019-04-11T06:58:25.527Z,62.34
2019-04-11T06:59:24.486Z,62.43
2019-04-11T07:00:25.191Z,62.62
2019-04-11T07:01:25.752Z,62.82
2019-04-11T07:02:25.075Z,62.91
2019-04-11T07:03:26.319Z,62.91
2019-04-11T07:04:25.319Z,62.97
2019-04-11T07:05:24.699Z,63.07
2019-04-11T07:06:24.480Z,63.26
2019-04-11T07:07:27.264Z,63.26
2019-04-11T07:08:25.094Z,63.54
2019-04-11T07:09:24.544Z,63.26
2019-04-11T07:10:24.672Z,63.35
2019-04-11T07:11:25.534Z,63.35
2019-04-11T07:12:24.530Z,63.35
2019-04-11T07:13:24.818Z,63.35
2019-04-11T07:14:24.760Z,63.82
2019-04-11T07:15:25.103Z,63.64
2019-04-11T07:16:25.394Z,63.73
2019-04-11T07:17:24.607Z,63.17
2019-04-11T07:18:24.830Z,63.54
2019-04-11T07:19:24.563Z,63.82
2019-04-11T07:20:25.017Z,63.64
2019-04-11T07:21:25.383Z,63.73
2019-04-11T07:22:25.207Z,63.07
2019-04-11T07:23:24.559Z,62.82
2019-04-11T07:24:24.763Z,62.62
2019-04-11T07:25:24.567Z,63.10
2019-04-11T07:26:25.220Z,62.15
2019-04-11T07:27:25.597Z,62.72
2019-04-11T07:28:25.244Z,62.15
2019-04-11T07:29:25.692Z,62.05
2019-04-11T07:30:25.567Z,62.43
2019-04-11T07:31:25.457Z,62.40
2019-04-11T07:32:25.712Z,62.59
2019-04-11T07:33:24.586Z,62.31
2019-04-11T07:34:24.579Z,62.43
2019-04-11T07:35:24.980Z,62.69
2019-04-11T07:36:24.645Z,62.78
2019-04-11T07:37:25.986Z,62.78
2019-04-11T07:38:24.652Z,62.31
2019-04-11T07:39:24.680Z,62.40
2019-04-11T07:40:24.639Z,62.72
2019-04-11T07:41:26.032Z,61.77
2019-04-11T07:42:26.012Z,61.30
2019-04-11T07:43:24.997Z,61.49
2019-04-11T07:44:27.449Z,61.11
2019-04-11T07:45:25.345Z,60.92
2019-04-11T07:46:25.370Z,60.53
2019-04-11T07:47:26.382Z,60.63
2019-04-11T07:48:24.967Z,60.16
2019-04-11T07:49:24.635Z,59.40
2019-04-11T07:50:26.098Z,59.49
2019-04-11T07:51:25.360Z,59.97
2019-04-11T07:52:24.999Z,59.49
2019-04-11T07:53:24.658Z,59.02
2019-04-11T07:54:25.796Z,57.88
2019-04-11T07:55:25.705Z,57.79
2019-04-11T07:56:25.113Z,57.21
2019-04-11T07:57:24.686Z,56.68
2019-04-11T07:58:24.677Z,56.39
2019-04-11T07:59:24.994Z,56.84
2019-04-11T08:00:37.848Z,56.84
2019-04-11T08:01:24.903Z,56.39
2019-04-11T08:02:24.687Z,56.58
2019-04-11T08:03:25.549Z,55.91
2019-04-11T08:04:24.711Z,55.82
2019-04-11T08:05:24.710Z,56.01
2019-04-11T08:06:24.704Z,56.01
2019-04-11T08:07:24.704Z,55.73
2019-04-11T08:08:25.731Z,55.35
2019-04-11T08:09:24.725Z,55.63
2019-04-11T08:10:25.002Z,54.87
2019-04-11T08:11:25.534Z,54.58
2019-04-11T08:12:25.497Z,54.33
2019-04-11T08:13:24.726Z,54.02
2019-04-11T08:14:24.805Z,53.95
2019-04-11T08:15:25.638Z,53.95
2019-04-11T08:16:24.732Z,53.38
2019-04-11T08:17:30.846Z,52.72
2019-04-11T08:18:24.748Z,53.00
2019-04-11T08:19:24.870Z,52.33
2019-04-11T08:20:25.635Z,52.72
2019-04-11T08:21:26.076Z,52.91
2019-04-11T08:22:25.643Z,53.85
2019-04-11T08:23:24.746Z,53.66
2019-04-11T08:24:26.929Z,54.14
2019-04-11T08:25:25.012Z,53.47
2019-04-11T08:26:24.792Z,52.81
2019-04-11T08:27:25.346Z,52.24
2019-04-11T08:28:24.910Z,50.72
2019-04-11T08:29:24.875Z,50.81
2019-04-11T08:30:24.793Z,51.29
2019-04-11T08:31:24.804Z,50.91
2019-04-11T08:32:25.563Z,51.39
2019-04-11T08:33:24.818Z,51.86
2019-04-11T08:34:24.812Z,52.02
2019-04-11T08:35:26.162Z,52.14
2019-04-11T08:36:26.029Z,52.24
2019-04-11T08:37:24.872Z,51.29
2019-04-11T08:38:24.853Z,50.91
2019-04-11T08:39:24.874Z,49.96
2019-04-11T08:40:25.944Z,49.68
2019-04-11T08:41:25.363Z,49.29
2019-04-11T08:42:25.378Z,49.58
2019-04-11T08:43:26.795Z,49.49
2019-04-11T08:44:25.933Z,49.39
2019-04-11T08:45:25.799Z,49.87
2019-04-11T08:46:24.889Z,49.49
2019-04-11T08:47:24.887Z,49.39
2019-04-11T08:48:24.854Z,49.20
2019-04-11T08:49:26.008Z,48.16
2019-04-11T08:50:26.080Z,47.68
2019-04-11T08:51:25.394Z,47.87
2019-04-11T08:52:24.875Z,47.87
2019-04-11T08:53:24.913Z,47.30
2019-04-11T08:54:25.765Z,46.45
2019-04-11T08:55:25.157Z,46.09
2019-04-11T08:56:25.087Z,45.71
2019-04-11T08:57:25.454Z,44.73
2019-04-11T08:58:24.907Z,44.85
2019-04-11T08:59:25.023Z,44.95
2019-04-11T09:00:26.192Z,43.80
2019-04-11T09:01:24.954Z,43.33
2019-04-11T09:02:24.947Z,43.52
2019-04-11T09:03:25.997Z,43.43
2019-04-11T09:04:26.024Z,43.05
2019-04-11T09:05:25.030Z,42.57
2019-04-11T09:06:24.955Z,42.76
2019-04-11T09:07:25.394Z,41.72
2019-04-11T09:08:25.195Z,41.24
2019-04-11T09:09:25.081Z,41.81
2019-04-11T09:10:26.128Z,41.91
2019-04-11T09:11:24.966Z,41.81
2019-04-11T09:12:25.012Z,41.05
2019-04-11T09:13:25.009Z,40.86
2019-04-11T09:14:26.312Z,40.95
2019-04-11T09:15:25.016Z,40.77
2019-04-11T09:16:25.778Z,40.58
2019-04-11T09:17:26.065Z,40.48
2019-04-11T09:18:25.942Z,40.48
2019-04-11T09:19:25.162Z,40.58
2019-04-11T09:20:25.063Z,40.41
2019-04-11T09:21:25.002Z,40.31
2019-04-11T09:22:25.042Z,40.12
2019-04-11T09:23:25.898Z,39.93
2019-04-11T09:24:26.257Z,39.26
2019-04-11T09:25:25.286Z,39.17
2019-04-11T09:26:25.672Z,39.26
2019-04-11T09:27:25.031Z,38.89
2019-04-11T09:28:25.088Z,38.60
2019-04-11T09:29:26.081Z,37.65
2019-04-11T09:30:25.121Z,37.74
2019-04-11T09:31:25.472Z,36.77
2019-04-11T09:32:25.178Z,37.27
2019-04-11T09:33:25.073Z,37.84
2019-04-11T09:34:25.918Z,38.20
2019-04-11T09:35:25.064Z,38.03
2019-04-11T09:36:26.062Z,37.65
2019-04-11T09:37:25.338Z,37.46
2019-04-11T09:38:25.395Z,37.84
2019-04-11T09:39:25.085Z,38.22
2019-04-11T09:40:26.344Z,38.51
2019-04-11T09:41:25.083Z,38.31
2019-04-11T09:42:26.141Z,38.51
2019-04-11T09:43:26.189Z,38.96
2019-04-11T09:44:25.114Z,39.25
2019-04-11T09:45:25.717Z,39.45
2019-04-11T09:46:26.195Z,38.87
2019-04-11T09:47:26.239Z,38.68
2019-04-11T09:48:26.244Z,38.96
2019-04-11T09:49:25.227Z,38.96
2019-04-11T09:50:25.163Z,38.96
2019-04-11T09:51:26.469Z,39.06
2019-04-11T09:52:25.175Z,39.17
2019-04-11T09:53:26.117Z,39.07
2019-04-11T09:54:26.203Z,38.60
2019-04-11T09:55:25.539Z,38.60
2019-04-11T09:56:25.158Z,38.60
2019-04-11T09:57:25.206Z,38.98
2019-04-11T09:58:25.370Z,38.51
2019-04-11T09:59:25.218Z,38.60
2019-04-11T10:00:26.717Z,38.48
2019-04-11T10:01:25.222Z,38.79
2019-04-11T10:02:25.386Z,38.98
2019-04-11T10:03:25.598Z,38.98
2019-04-11T10:04:25.623Z,38.98
2019-04-11T10:05:26.425Z,39.26
2019-04-11T10:06:25.255Z,39.65
2019-04-11T10:07:25.803Z,40.03
2019-04-11T10:08:26.558Z,40.22
2019-04-11T10:09:26.076Z,40.22
2019-04-11T10:10:25.271Z,40.31
2019-04-11T10:11:26.131Z,40.31
2019-04-11T10:12:25.272Z,40.79
2019-04-11T10:13:25.293Z,40.69
2019-04-11T10:14:25.865Z,40.59
2019-04-11T10:15:25.340Z,40.22
2019-04-11T10:16:26.300Z,39.84
2019-04-11T10:17:26.871Z,39.28
2019-04-11T10:18:27.727Z,39.09
2019-04-11T10:19:25.299Z,38.79
2019-04-11T10:20:26.681Z,39.55
2019-04-11T10:21:25.954Z,39.84
2019-04-11T10:22:25.323Z,39.65
2019-04-11T10:23:25.352Z,39.65
2019-04-11T10:24:26.377Z,39.65
2019-04-11T10:25:25.459Z,39.55
2019-04-11T10:26:25.783Z,39.67
2019-04-11T10:27:25.341Z,39.09
2019-04-11T10:28:25.342Z,38.70
2019-04-11T10:29:25.760Z,38.90
2019-04-11T10:30:25.803Z,38.89
2019-04-11T10:31:26.250Z,39.26
2019-04-11T10:32:25.427Z,39.38
2019-04-11T10:33:25.353Z,39.67
2019-04-11T10:34:25.784Z,39.00
2019-04-11T10:35:26.107Z,38.81
2019-04-11T10:36:25.470Z,38.24
2019-04-11T10:37:25.515Z,37.95
2019-04-11T10:38:26.397Z,38.14
2019-04-11T10:39:25.390Z,37.86
2019-04-11T10:40:26.076Z,37.76
2019-04-11T10:41:25.472Z,38.24
2019-04-11T10:42:26.590Z,38.24
2019-04-11T10:43:26.539Z,38.24
2019-04-11T10:44:25.710Z,38.14
2019-04-11T10:45:26.729Z,38.24
2019-04-11T10:46:25.430Z,37.86
2019-04-11T10:47:25.469Z,37.48
2019-04-11T10:48:36.841Z,37.38
2019-04-11T10:49:26.311Z,37.93
2019-04-11T10:50:25.736Z,37.37
2019-04-11T10:51:25.460Z,37.65
2019-04-11T10:52:26.555Z,37.74
2019-04-11T10:53:25.468Z,38.03
2019-04-11T10:54:26.005Z,38.31
2019-04-11T10:55:25.503Z,38.79
2019-04-11T10:56:26.430Z,38.51
2019-04-11T10:57:25.515Z,38.31
2019-04-11T10:58:26.746Z,38.89
2019-04-11T10:59:27.831Z,38.98
2019-04-11T11:00:25.494Z,38.81
2019-04-11T11:01:26.671Z,38.90
2019-04-11T11:02:25.610Z,38.14
2019-04-11T11:03:27.279Z,38.05
2019-04-11T11:04:25.634Z,38.34
2019-04-11T11:05:26.290Z,38.34
2019-04-11T11:06:25.581Z,38.14
2019-04-11T11:07:26.666Z,37.86
2019-04-11T11:08:25.734Z,38.14
2019-04-11T11:09:26.229Z,37.88
2019-04-11T11:10:25.806Z,36.81
2019-04-11T11:11:25.577Z,36.33
2019-04-11T11:12:25.587Z,35.86
2019-04-11T11:13:25.726Z,35.96
2019-04-11T11:14:26.875Z,36.33
2019-04-11T11:15:25.620Z,36.43
2019-04-11T11:16:28.804Z,36.62
2019-04-11T11:17:47.156Z,37.19
2019-04-11T11:19:01.975Z,37.29
2019-04-11T11:19:43.880Z,37.76
2019-04-11T11:20:33.629Z,38.03
2019-04-11T11:21:29.964Z,38.51
2019-04-11T11:22:25.639Z,39.57
2019-04-11T11:23:26.783Z,39.57
2019-04-11T11:24:26.044Z,40.03
2019-04-11T11:25:26.717Z,40.31
2019-04-11T11:26:26.182Z,40.03
2019-04-11T11:27:26.549Z,40.22
2019-04-11T11:28:25.945Z,40.50
2019-04-11T11:29:26.626Z,40.41
2019-04-11T11:30:25.643Z,40.88
2019-04-11T11:31:25.668Z,40.98
2019-04-11T11:32:25.717Z,40.79
2019-04-11T11:33:26.607Z,40.69
2019-04-11T11:34:25.682Z,40.88
2019-04-11T11:35:28.386Z,40.88
2019-04-11T11:36:25.775Z,40.41
2019-04-11T11:37:25.878Z,40.69
2019-04-11T11:38:26.067Z,40.31
2019-04-11T11:39:26.827Z,40.98
2019-04-11T11:40:25.923Z,40.52
2019-04-11T11:41:25.733Z,40.79
2019-04-11T11:42:26.166Z,40.59
2019-04-11T11:43:25.760Z,40.69
2019-04-11T11:44:25.797Z,40.88
2019-04-11T11:45:25.751Z,40.59
2019-04-11T11:46:29.544Z,40.59
2019-04-11T11:47:25.910Z,40.79
2019-04-11T11:48:26.373Z,40.98
2019-04-11T11:49:41.858Z,41.46
2019-04-11T11:50:26.793Z,41.74
2019-04-11T11:51:29.242Z,42.40
2019-04-11T11:52:26.879Z,42.50
2019-04-11T11:53:28.094Z,41.91
2019-04-11T11:54:25.778Z,42.60
2019-04-11T11:55:25.818Z,42.79
2019-04-11T11:56:26.263Z,42.69
2019-04-11T11:57:26.657Z,42.69
2019-04-11T11:58:25.846Z,42.69
2019-04-11T11:59:27.038Z,42.69
2019-04-11T12:00:27.096Z,42.95
2019-04-11T12:01:25.835Z,43.05
2019-04-11T12:02:26.393Z,43.35
2019-04-11T12:03:29.166Z,43.83
2019-04-11T12:04:26.179Z,43.64
2019-04-11T12:05:26.925Z,44.21
2019-04-11T12:06:27.061Z,44.59
2019-04-11T12:07:25.851Z,44.57
2019-04-11T12:08:25.864Z,44.47
2019-04-11T12:09:26.670Z,44.67
2019-04-11T12:10:26.108Z,44.97
2019-04-11T12:11:26.247Z,44.78
2019-04-11T12:12:25.864Z,44.68
2019-04-11T12:13:26.227Z,44.49
2019-04-11T12:14:25.885Z,44.49
2019-04-11T12:15:28.415Z,44.49
2019-04-11T12:16:25.984Z,43.66
2019-04-11T12:17:26.905Z,43.54
2019-04-11T12:18:26.757Z,42.97
2019-04-11T12:19:26.885Z,43.16
2019-04-11T12:20:27.009Z,43.54
2019-04-11T12:21:28.104Z,43.73
2019-04-11T12:22:26.497Z,43.83
2019-04-11T12:23:26.016Z,43.83
2019-04-11T12:24:25.937Z,43.54
2019-04-11T12:25:27.167Z,43.09
2019-04-11T12:26:30.441Z,43.19
2019-04-11T12:27:26.819Z,43.07
2019-04-11T12:28:25.963Z,43.28
2019-04-11T12:29:27.240Z,42.90
2019-04-11T12:30:29.703Z,42.71
2019-04-11T12:31:26.068Z,41.95
2019-04-11T12:32:25.971Z,41.66
2019-04-11T12:33:25.964Z,41.40
2019-04-11T12:34:26.121Z,40.73
2019-04-11T12:35:27.293Z,41.09
2019-04-11T12:36:26.483Z,40.71
2019-04-11T12:37:25.998Z,40.52
2019-04-11T12:38:26.002Z,40.54
2019-04-11T12:39:26.026Z,40.45
2019-04-11T12:40:26.016Z,40.54
2019-04-11T12:41:26.017Z,40.14
2019-04-11T12:42:26.042Z,39.57
2019-04-11T12:43:26.084Z,39.59
2019-04-11T12:44:26.738Z,39.57
2019-04-11T12:45:26.103Z,40.43
2019-04-11T12:46:30.105Z,40.62
2019-04-11T12:47:26.050Z,40.62
2019-04-11T12:48:26.067Z,40.90
2019-04-11T12:49:26.055Z,40.90
2019-04-11T12:50:26.071Z,40.81
2019-04-11T12:51:26.066Z,40.45
2019-04-11T12:52:26.114Z,40.05
2019-04-11T12:53:26.098Z,40.33
2019-04-11T12:54:26.071Z,40.62
2019-04-11T12:55:26.103Z,40.62
2019-04-11T12:56:26.089Z,40.81
2019-04-11T12:57:26.188Z,40.43
2019-04-11T12:58:26.290Z,40.43
2019-04-11T12:59:26.125Z,40.90
2019-04-11T13:00:26.129Z,40.71
2019-04-11T13:01:26.109Z,40.52
2019-04-11T13:02:26.121Z,40.81
2019-04-11T13:03:26.157Z,40.52
2019-04-11T13:04:26.130Z,40.33
2019-04-11T13:05:26.149Z,40.14
2019-04-11T13:06:34.933Z,40.43
2019-04-11T13:07:26.151Z,40.05
2019-04-11T13:08:26.152Z,40.05
2019-04-11T13:09:26.210Z,39.95
2019-04-11T13:10:26.226Z,40.14
2019-04-11T13:11:26.185Z,39.95
2019-04-11T13:12:26.175Z,39.76
2019-04-11T13:13:26.179Z,39.65
2019-04-11T13:14:26.196Z,40.03
2019-04-11T13:15:26.209Z,40.12
2019-04-11T13:16:26.212Z,40.12
2019-04-11T13:17:26.216Z,40.22
2019-04-11T13:18:26.218Z,40.41
2019-04-11T13:19:26.235Z,40.03
2019-04-11T13:20:26.258Z,40.22
2019-04-11T13:21:26.230Z,40.41
2019-04-11T13:22:26.217Z,40.69
2019-04-11T13:23:26.227Z,40.59
2019-04-11T13:24:26.233Z,40.50
2019-04-11T13:25:26.229Z,40.41
2019-04-11T13:26:26.276Z,40.52
2019-04-11T13:27:26.295Z,40.33
2019-04-11T13:28:26.245Z,41.09
2019-04-11T13:29:26.247Z,40.71
2019-04-11T13:30:26.257Z,41.09
2019-04-11T13:31:26.267Z,40.52
2019-04-11T13:32:26.299Z,40.81
2019-04-11T13:33:26.273Z,40.14
2019-04-11T13:34:26.300Z,40.23
2019-04-11T13:35:26.283Z,40.33
2019-04-11T13:36:26.290Z,40.43
2019-04-11T13:37:26.314Z,40.33
2019-04-11T13:38:26.320Z,40.52
2019-04-11T13:39:26.325Z,40.50
2019-04-11T13:40:26.321Z,41.17
2019-04-11T13:41:26.329Z,41.26
2019-04-11T13:42:26.319Z,41.17
2019-04-11T13:43:26.376Z,41.64
2019-04-11T13:44:26.341Z,41.83
2019-04-11T13:45:26.352Z,42.02
2019-04-11T13:46:26.370Z,41.64
2019-04-11T13:47:26.351Z,41.17
2019-04-11T13:48:26.376Z,41.93
2019-04-11T13:49:26.383Z,42.02
2019-04-11T13:50:26.365Z,42.31
2019-04-11T13:51:26.375Z,42.21
2019-04-11T13:52:26.380Z,42.60
2019-04-11T13:53:26.381Z,42.79
2019-04-11T13:54:26.429Z,42.79
2019-04-11T13:55:26.377Z,42.61
2019-04-11T13:56:26.449Z,41.93
2019-04-11T13:57:26.409Z,41.64
2019-04-11T13:58:26.393Z,41.74
2019-04-11T13:59:26.443Z,41.55
2019-04-11T14:00:26.475Z,41.93
2019-04-11T14:01:26.411Z,41.93
2019-04-11T14:02:26.409Z,42.60
2019-04-11T14:03:26.493Z,42.79
2019-04-11T14:04:26.421Z,42.88
2019-04-11T14:05:26.477Z,42.02
2019-04-11T14:06:26.448Z,42.69
2019-04-11T14:07:26.472Z,42.79
2019-04-11T14:08:26.442Z,42.79
2019-04-11T14:09:28.609Z,42.88
2019-04-11T14:10:26.492Z,42.97
2019-04-11T14:11:26.451Z,42.97
2019-04-11T14:12:26.458Z,42.31
2019-04-11T14:13:26.483Z,42.88
2019-04-11T14:14:26.480Z,42.88
2019-04-11T14:15:26.504Z,42.50
2019-04-11T14:16:26.501Z,42.79
2019-04-11T14:17:26.501Z,42.88
2019-04-11T14:18:26.530Z,42.02
2019-04-11T14:19:26.520Z,42.04
2019-04-11T14:20:29.533Z,41.85
2019-04-11T14:21:26.521Z,41.95
2019-04-11T14:22:29.048Z,41.95
2019-04-11T14:23:26.553Z,41.83
2019-04-11T14:24:26.562Z,41.95
2019-04-11T14:25:26.568Z,42.12
2019-04-11T14:26:26.550Z,41.83
2019-04-11T14:27:26.570Z,41.83
2019-04-11T14:28:26.557Z,41.95
2019-04-11T14:29:26.571Z,41.95
2019-04-11T14:30:26.583Z,42.02
2019-04-11T14:31:26.569Z,41.83
2019-04-11T14:32:26.580Z,42.02
2019-04-11T14:33:27.244Z,42.40
2019-04-11T14:34:29.137Z,42.88
2019-04-11T14:35:26.590Z,42.40
2019-04-11T14:36:33.184Z,42.79
2019-04-11T14:37:37.453Z,42.97
2019-04-11T14:38:26.587Z,43.33
2019-04-11T14:39:26.598Z,44.09
2019-04-11T14:40:26.599Z,44.38
2019-04-11T14:41:26.612Z,44.47
2019-04-11T14:42:26.749Z,44.95
2019-04-11T14:43:26.605Z,44.76
2019-04-11T14:44:26.815Z,44.85
2019-04-11T14:45:26.623Z,44.67
2019-04-11T14:46:26.669Z,44.95
2019-04-11T14:47:26.657Z,44.57
2019-04-11T14:48:26.703Z,44.95
2019-04-11T14:49:27.186Z,45.61
2019-04-11T14:50:26.661Z,45.61
2019-04-11T14:51:26.662Z,45.33
2019-04-11T14:52:26.688Z,45.04
2019-04-11T14:53:26.692Z,45.42
2019-04-11T14:54:26.661Z,45.61
2019-04-11T14:55:26.689Z,45.61
2019-04-11T14:56:27.216Z,46.37
2019-04-11T14:57:26.713Z,46.66